sensor_id;sensor_type;location;lat;lon;timestamp;pressure;altitude;pressure_sealevel;temperature;humidity
66627;BME280;53498;50.422;14.912;2022-08-21T00:01:24;98878.06;;;17.45;100.00
66627;BME280;53498;50.422;14.912;2022-08-21T00:03:51;98872.97;;;17.40;100.00
66627;BME280;53498;50.422;14.912;2022-08-21T00:06:20;98870.34;;;17.40;100.00
66627;BME280;53498;50.422;14.912;2022-08-21T00:08:45;98874.84;;;17.37;100.00
66627;BME280;53498;50.422;14.912;2022-08-21T00:11:11;98873.09;;;17.35;100.00
66627;BME280;53498;50.422;14.912;2022-08-21T00:13:37;98872.78;;;17.46;100.00
66627;BME280;53498;50.422;14.912;2022-08-21T00:16:04;98863.31;;;17.41;100.00
66627;BME280;53498;50.422;14.912;2022-08-21T00:18:30;98868.41;;;17.45;100.00
66627;BME280;53498;50.422;14.912;2022-08-21T00:20:55;98872.78;;;17.46;100.00
66627;BME280;53498;50.422;14.912;2022-08-21T00:23:21;98872.44;;;17.57;100.00
66627;BME280;53498;50.422;14.912;2022-08-21T00:25:47;98875.25;;;17.51;100.00
66627;BME280;53498;50.422;14.912;2022-08-21T00:28:14;98872.22;;;17.65;100.00
66627;BME280;53498;50.422;14.912;2022-08-21T00:30:41;98874.69;;;17.69;100.00
66627;BME280;53498;50.422;14.912;2022-08-21T00:33:07;98869.41;;;17.69;100.00
66627;BME280;53498;50.422;14.912;2022-08-21T00:35:36;98865.84;;;17.72;100.00
66627;BME280;53498;50.422;14.912;2022-08-21T00:38:04;98865.88;;;17.70;100.00
66627;BME280;53498;50.422;14.912;2022-08-21T00:43:09;98871.31;;;17.64;100.00
66627;BME280;53498;50.422;14.912;2022-08-21T00:45:39;98875.69;;;17.65;100.00
66627;BME280;53498;50.422;14.912;2022-08-21T00:48:04;98875.63;;;17.67;100.00
66627;BME280;53498;50.422;14.912;2022-08-21T00:50:32;98878.34;;;17.65;100.00
66627;BME280;53498;50.422;14.912;2022-08-21T00:53:00;98869.28;;;17.74;100.00
66627;BME280;53498;50.422;14.912;2022-08-21T00:55:28;98874.88;;;17.63;100.00
66627;BME280;53498;50.422;14.912;2022-08-21T00:57:56;98870.91;;;17.50;100.00
66627;BME280;53498;50.422;14.912;2022-08-21T01:00:35;98872.81;;;17.45;100.00
66627;BME280;53498;50.422;14.912;2022-08-21T01:03:07;98875.34;;;17.48;100.00
66627;BME280;53498;50.422;14.912;2022-08-21T01:05:33;98867.75;;;17.39;100.00
66627;BME280;53498;50.422;14.912;2022-08-21T01:07:58;98879.34;;;17.33;100.00
66627;BME280;53498;50.422;14.912;2022-08-21T01:10:24;98878.19;;;17.42;100.00
66627;BME280;53498;50.422;14.912;2022-08-21T01:12:53;98873.25;;;17.31;100.00
66627;BME280;53498;50.422;14.912;2022-08-21T01:15:21;98875.81;;;17.32;100.00
66627;BME280;53498;50.422;14.912;2022-08-21T01:17:49;98868.13;;;17.26;100.00
66627;BME280;53498;50.422;14.912;2022-08-21T01:20:17;98866.38;;;17.27;100.00
66627;BME280;53498;50.422;14.912;2022-08-21T01:22:49;98860.88;;;17.34;100.00
66627;BME280;53498;50.422;14.912;2022-08-21T01:25:16;98862.69;;;17.32;100.00
66627;BME280;53498;50.422;14.912;2022-08-21T01:27:43;98867.16;;;17.30;100.00
66627;BME280;53498;50.422;14.912;2022-08-21T01:30:18;98857.47;;;17.31;100.00
66627;BME280;53498;50.422;14.912;2022-08-21T01:32:45;98864.22;;;17.40;100.00
66627;BME280;53498;50.422;14.912;2022-08-21T01:35:13;98860.88;;;17.34;100.00
66627;BME280;53498;50.422;14.912;2022-08-21T01:37:39;98857.31;;;17.35;100.00
66627;BME280;53498;50.422;14.912;2022-08-21T01:40:05;98854.59;;;17.39;100.00
66627;BME280;53498;50.422;14.912;2022-08-21T01:42:31;98847.34;;;17.47;100.00
66627;BME280;53498;50.422;14.912;2022-08-21T01:44:57;98854.22;;;17.51;100.00
66627;BME280;53498;50.422;14.912;2022-08-21T01:47:23;98852.41;;;17.53;100.00
66627;BME280;53498;50.422;14.912;2022-08-21T01:49:49;98850.84;;;17.47;100.00
66627;BME280;53498;50.422;14.912;2022-08-21T01:52:14;98844.91;;;17.41;100.00
66627;BME280;53498;50.422;14.912;2022-08-21T01:54:41;98842.38;;;17.38;100.00
66627;BME280;53498;50.422;14.912;2022-08-21T01:57:07;98839.19;;;17.54;100.00
66627;BME280;53498;50.422;14.912;2022-08-21T01:59:34;98846.50;;;17.46;100.00
66627;BME280;53498;50.422;14.912;2022-08-21T02:01:59;98836.91;;;17.44;100.00
66627;BME280;53498;50.422;14.912;2022-08-21T02:04:29;98838.72;;;17.42;100.00
66627;BME280;53498;50.422;14.912;2022-08-21T02:06:55;98840.50;;;17.41;100.00
66627;BME280;53498;50.422;14.912;2022-08-21T02:09:21;98838.03;;;17.37;100.00
66627;BME280;53498;50.422;14.912;2022-08-21T02:11:47;98828.13;;;17.45;100.00
66627;BME280;53498;50.422;14.912;2022-08-21T02:14:14;98828.22;;;17.42;100.00
66627;BME280;53498;50.422;14.912;2022-08-21T02:16:41;98823.63;;;17.48;100.00
66627;BME280;53498;50.422;14.912;2022-08-21T02:19:08;98825.56;;;17.43;100.00
66627;BME280;53498;50.422;14.912;2022-08-21T02:21:34;98817.41;;;17.51;100.00
66627;BME280;53498;50.422;14.912;2022-08-21T02:24:00;98819.66;;;17.35;100.00
66627;BME280;53498;50.422;14.912;2022-08-21T02:26:26;98823.81;;;17.42;100.00
66627;BME280;53498;50.422;14.912;2022-08-21T02:28:52;98812.31;;;17.46;100.00
66627;BME280;53498;50.422;14.912;2022-08-21T02:31:18;98813.91;;;17.50;100.00
66627;BME280;53498;50.422;14.912;2022-08-21T02:33:44;98813.78;;;17.55;100.00
66627;BME280;53498;50.422;14.912;2022-08-21T02:36:10;98818.06;;;17.57;100.00
66627;BME280;53498;50.422;14.912;2022-08-21T02:38:38;98817.00;;;17.63;100.00
66627;BME280;53498;50.422;14.912;2022-08-21T02:41:07;98810.69;;;17.69;100.00
66627;BME280;53498;50.422;14.912;2022-08-21T02:43:33;98807.81;;;17.50;100.00
66627;BME280;53498;50.422;14.912;2022-08-21T02:45:59;98811.28;;;17.50;100.00
66627;BME280;53498;50.422;14.912;2022-08-21T02:48:28;98810.63;;;17.44;100.00
66627;BME280;53498;50.422;14.912;2022-08-21T02:51:00;98822.19;;;17.38;100.00
66627;BME280;53498;50.422;14.912;2022-08-21T02:53:27;98817.88;;;17.35;100.00
66627;BME280;53498;50.422;14.912;2022-08-21T02:55:53;98819.34;;;17.46;100.00
66627;BME280;53498;50.422;14.912;2022-08-21T02:58:23;98817.59;;;17.45;100.00
66627;BME280;53498;50.422;14.912;2022-08-21T03:00:50;98822.06;;;17.43;100.00
66627;BME280;53498;50.422;14.912;2022-08-21T03:03:16;98818.31;;;17.50;100.00
66627;BME280;53498;50.422;14.912;2022-08-21T03:05:43;98819.94;;;17.54;100.00
66627;BME280;53498;50.422;14.912;2022-08-21T03:08:11;98823.94;;;17.66;100.00
66627;BME280;53498;50.422;14.912;2022-08-21T03:10:46;98819.06;;;17.53;100.00
66627;BME280;53498;50.422;14.912;2022-08-21T03:13:13;98826.06;;;17.54;100.00
66627;BME280;53498;50.422;14.912;2022-08-21T03:15:39;98814.88;;;17.48;100.00
66627;BME280;53498;50.422;14.912;2022-08-21T03:18:05;98820.94;;;17.50;100.00
66627;BME280;53498;50.422;14.912;2022-08-21T03:20:33;98815.28;;;17.62;100.00
66627;BME280;53498;50.422;14.912;2022-08-21T03:23:00;98819.19;;;17.50;100.00
66627;BME280;53498;50.422;14.912;2022-08-21T03:25:26;98813.09;;;17.48;100.00
66627;BME280;53498;50.422;14.912;2022-08-21T03:27:53;98811.94;;;17.57;100.00
66627;BME280;53498;50.422;14.912;2022-08-21T03:30:20;98820.25;;;17.71;100.00
66627;BME280;53498;50.422;14.912;2022-08-21T03:32:49;98821.97;;;17.72;100.00
66627;BME280;53498;50.422;14.912;2022-08-21T03:35:17;98830.78;;;17.71;100.00
66627;BME280;53498;50.422;14.912;2022-08-21T03:37:43;98827.44;;;17.66;100.00
66627;BME280;53498;50.422;14.912;2022-08-21T03:40:10;98826.28;;;17.75;100.00
66627;BME280;53498;50.422;14.912;2022-08-21T03:42:37;98831.41;;;17.79;100.00
66627;BME280;53498;50.422;14.912;2022-08-21T03:45:04;98833.25;;;17.77;100.00
66627;BME280;53498;50.422;14.912;2022-08-21T03:47:29;98832.19;;;17.83;100.00
66627;BME280;53498;50.422;14.912;2022-08-21T03:49:55;98839.28;;;17.79;100.00
66627;BME280;53498;50.422;14.912;2022-08-21T03:52:27;98835.03;;;17.77;100.00
66627;BME280;53498;50.422;14.912;2022-08-21T03:54:52;98832.38;;;17.77;100.00
66627;BME280;53498;50.422;14.912;2022-08-21T03:57:18;98838.78;;;17.68;100.00
66627;BME280;53498;50.422;14.912;2022-08-21T03:59:44;98838.06;;;17.63;100.00
66627;BME280;53498;50.422;14.912;2022-08-21T04:02:10;98846.13;;;17.57;100.00
66627;BME280;53498;50.422;14.912;2022-08-21T04:04:36;98843.00;;;17.46;100.00
66627;BME280;53498;50.422;14.912;2022-08-21T04:07:02;98842.84;;;17.50;100.00
66627;BME280;53498;50.422;14.912;2022-08-21T04:09:28;98847.34;;;17.47;100.00
66627;BME280;53498;50.422;14.912;2022-08-21T04:11:56;98844.91;;;17.41;100.00
66627;BME280;53498;50.422;14.912;2022-08-21T04:14:28;98857.09;;;17.43;100.00
66627;BME280;53498;50.422;14.912;2022-08-21T04:16:53;98855.44;;;17.41;100.00
66627;BME280;53498;50.422;14.912;2022-08-21T04:19:19;98851.22;;;17.35;100.00
66627;BME280;53498;50.422;14.912;2022-08-21T04:21:44;98849.97;;;17.47;100.00
66627;BME280;53498;50.422;14.912;2022-08-21T04:24:10;98854.59;;;17.39;100.00
66627;BME280;53498;50.422;14.912;2022-08-21T04:26:37;98862.56;;;17.37;100.00
66627;BME280;53498;50.422;14.912;2022-08-21T04:29:03;98864.31;;;17.37;100.00
66627;BME280;53498;50.422;14.912;2022-08-21T04:31:32;98874.97;;;17.32;100.00
66627;BME280;53498;50.422;14.912;2022-08-21T04:33:57;98877.47;;;17.37;100.00
66627;BME280;53498;50.422;14.912;2022-08-21T04:36:23;98880.09;;;17.37;100.00
66627;BME280;53498;50.422;14.912;2022-08-21T04:38:49;98873.84;;;17.41;100.00
66627;BME280;53498;50.422;14.912;2022-08-21T04:41:14;98883.44;;;17.42;100.00
66627;BME280;53498;50.422;14.912;2022-08-21T04:43:40;98888.66;;;17.43;100.00
66627;BME280;53498;50.422;14.912;2022-08-21T04:46:06;98885.28;;;17.38;100.00
66627;BME280;53498;50.422;14.912;2022-08-21T04:48:32;98890.56;;;17.38;100.00
66627;BME280;53498;50.422;14.912;2022-08-21T04:51:08;98895.41;;;17.22;100.00
66627;BME280;53498;50.422;14.912;2022-08-21T04:53:49;98894.66;;;17.19;100.00
66627;BME280;53498;50.422;14.912;2022-08-21T04:56:29;98895.41;;;17.22;100.00
66627;BME280;53498;50.422;14.912;2022-08-21T04:58:58;98895.47;;;17.21;100.00
66627;BME280;53498;50.422;14.912;2022-08-21T05:01:27;98899.06;;;17.18;100.00
66627;BME280;53498;50.422;14.912;2022-08-21T05:03:55;98908.97;;;17.08;100.00
66627;BME280;53498;50.422;14.912;2022-08-21T05:06:23;98905.28;;;17.14;100.00
66627;BME280;53498;50.422;14.912;2022-08-21T05:08:51;98913.91;;;17.19;100.00
66627;BME280;53498;50.422;14.912;2022-08-21T05:11:18;98908.91;;;17.10;100.00
66627;BME280;53498;50.422;14.912;2022-08-21T05:13:45;98907.22;;;17.09;100.00
66627;BME280;53498;50.422;14.912;2022-08-21T05:16:10;98908.81;;;17.15;100.00
66627;BME280;53498;50.422;14.912;2022-08-21T05:18:36;98914.25;;;17.08;100.00
66627;BME280;53498;50.422;14.912;2022-08-21T05:21:02;98914.34;;;17.04;100.00
66627;BME280;53498;50.422;14.912;2022-08-21T05:23:28;98921.56;;;16.97;100.00
66627;BME280;53498;50.422;14.912;2022-08-21T05:25:53;98915.34;;;17.00;100.00
66627;BME280;53498;50.422;14.912;2022-08-21T05:28:19;98917.16;;;16.98;100.00
66627;BME280;53498;50.422;14.912;2022-08-21T05:30:45;98926.81;;;16.97;100.00
66627;BME280;53498;50.422;14.912;2022-08-21T05:33:10;98931.06;;;17.01;100.00
66627;BME280;53498;50.422;14.912;2022-08-21T05:35:37;98927.66;;;16.98;100.00
66627;BME280;53498;50.422;14.912;2022-08-21T05:38:03;98925.13;;;16.95;100.00
66627;BME280;53498;50.422;14.912;2022-08-21T05:40:30;98923.34;;;16.95;100.00
66627;BME280;53498;50.422;14.912;2022-08-21T05:42:56;98924.31;;;16.93;100.00
66627;BME280;53498;50.422;14.912;2022-08-21T05:45:27;98926.13;;;16.91;100.00
66627;BME280;53498;50.422;14.912;2022-08-21T05:47:53;98924.44;;;16.88;100.00
66627;BME280;53498;50.422;14.912;2022-08-21T05:50:19;98927.16;;;16.85;100.00
66627;BME280;53498;50.422;14.912;2022-08-21T05:52:45;98927.16;;;16.85;100.00
66627;BME280;53498;50.422;14.912;2022-08-21T05:55:11;98922.66;;;16.88;100.00
66627;BME280;53498;50.422;14.912;2022-08-21T05:57:44;98928.78;;;16.89;100.00
66627;BME280;53498;50.422;14.912;2022-08-21T06:00:10;98925.28;;;16.88;100.00
66627;BME280;53498;50.422;14.912;2022-08-21T06:02:38;98934.22;;;16.83;100.00
66627;BME280;53498;50.422;14.912;2022-08-21T06:05:04;98927.13;;;16.86;100.00
66627;BME280;53498;50.422;14.912;2022-08-21T06:07:29;98937.41;;;16.94;100.00
66627;BME280;53498;50.422;14.912;2022-08-21T06:09:55;98937.66;;;16.85;100.00
66627;BME280;53498;50.422;14.912;2022-08-21T06:12:21;98934.16;;;16.86;100.00
66627;BME280;53498;50.422;14.912;2022-08-21T06:14:48;98934.16;;;16.86;100.00
66627;BME280;53498;50.422;14.912;2022-08-21T06:17:15;98942.03;;;16.86;100.00
66627;BME280;53498;50.422;14.912;2022-08-21T06:19:41;98939.19;;;16.92;100.00
66627;BME280;53498;50.422;14.912;2022-08-21T06:22:07;98936.56;;;16.92;100.00
66627;BME280;53498;50.422;14.912;2022-08-21T06:24:33;98941.53;;;17.03;100.00
66627;BME280;53498;50.422;14.912;2022-08-21T06:27:06;98940.72;;;17.01;100.00
66627;BME280;53498;50.422;14.912;2022-08-21T06:29:33;98935.38;;;17.04;100.00
66627;BME280;53498;50.422;14.912;2022-08-21T06:31:59;98929.41;;;16.99;100.00
66627;BME280;53498;50.422;14.912;2022-08-21T06:34:24;98937.06;;;17.06;100.00
66627;BME280;53498;50.422;14.912;2022-08-21T06:36:50;98939.75;;;17.05;100.00
66627;BME280;53498;50.422;14.912;2022-08-21T06:39:15;98940.38;;;17.13;100.00
66627;BME280;53498;50.422;14.912;2022-08-21T06:41:41;98938.41;;;17.20;100.00
66627;BME280;53498;50.422;14.912;2022-08-21T06:44:07;98947.13;;;17.22;100.00
66627;BME280;53498;50.422;14.912;2022-08-21T06:46:33;98940.97;;;17.23;100.00
66627;BME280;53498;50.422;14.912;2022-08-21T06:48:59;98934.59;;;17.31;100.00
66627;BME280;53498;50.422;14.912;2022-08-21T06:51:25;98938.91;;;17.32;100.00
66627;BME280;53498;50.422;14.912;2022-08-21T06:53:52;98937.13;;;17.34;100.00
66627;BME280;53498;50.422;14.912;2022-08-21T06:56:18;98938.91;;;17.32;100.00
66627;BME280;53498;50.422;14.912;2022-08-21T06:58:44;98942.84;;;17.49;100.00
66627;BME280;53498;50.422;14.912;2022-08-21T07:01:10;98943.44;;;17.57;100.00
66627;BME280;53498;50.422;14.912;2022-08-21T07:03:38;98944.28;;;17.59;100.00
66627;BME280;53498;50.422;14.912;2022-08-21T07:06:05;98943.06;;;17.71;100.00
66627;BME280;53498;50.422;14.912;2022-08-21T07:08:32;98938.41;;;17.80;100.00
66627;BME280;53498;50.422;14.912;2022-08-21T07:11:00;98949.06;;;17.74;100.00
66627;BME280;53498;50.422;14.912;2022-08-21T07:13:27;98954.97;;;17.83;100.00
66627;BME280;53498;50.422;14.912;2022-08-21T07:15:53;98957.66;;;17.81;100.00
66627;BME280;53498;50.422;14.912;2022-08-21T07:18:18;98960.69;;;17.97;100.00
66627;BME280;53498;50.422;14.912;2022-08-21T07:20:44;98959.56;;;18.04;100.00
66627;BME280;53498;50.422;14.912;2022-08-21T07:25:45;98973.53;;;18.06;100.00
66627;BME280;53498;50.422;14.912;2022-08-21T07:28:11;98975.56;;;17.98;100.00
66627;BME280;53498;50.422;14.912;2022-08-21T07:30:36;98982.84;;;17.90;100.00
66627;BME280;53498;50.422;14.912;2022-08-21T07:33:02;98978.25;;;17.96;100.00
66627;BME280;53498;50.422;14.912;2022-08-21T07:35:28;98979.19;;;17.94;100.00
66627;BME280;53498;50.422;14.912;2022-08-21T07:37:53;98976.66;;;17.91;100.00
66627;BME280;53498;50.422;14.912;2022-08-21T07:40:19;98976.38;;;18.00;100.00
66627;BME280;53498;50.422;14.912;2022-08-21T07:42:48;98982.09;;;18.13;100.00
66627;BME280;53498;50.422;14.912;2022-08-21T07:45:18;98980.19;;;18.18;100.00
66627;BME280;53498;50.422;14.912;2022-08-21T07:47:44;98979.84;;;18.29;100.00
66627;BME280;53498;50.422;14.912;2022-08-21T07:50:11;98968.28;;;18.33;99.60
66627;BME280;53498;50.422;14.912;2022-08-21T07:52:38;98963.75;;;18.36;98.08
66627;BME280;53498;50.422;14.912;2022-08-21T07:55:05;98962.97;;;18.34;98.30
66627;BME280;53498;50.422;14.912;2022-08-21T07:57:30;98960.19;;;18.39;98.45
66627;BME280;53498;50.422;14.912;2022-08-21T07:59:56;98953.31;;;18.35;97.20
66627;BME280;53498;50.422;14.912;2022-08-21T08:02:27;98958.63;;;18.58;98.15
66627;BME280;53498;50.422;14.912;2022-08-21T08:04:53;98959.31;;;18.65;98.70
66627;BME280;53498;50.422;14.912;2022-08-21T08:07:19;98959.97;;;18.45;97.87
66627;BME280;53498;50.422;14.912;2022-08-21T08:09:45;98957.19;;;18.49;96.68
66627;BME280;53498;50.422;14.912;2022-08-21T08:12:12;98967.63;;;18.53;95.51
66627;BME280;53498;50.422;14.912;2022-08-21T08:14:37;98959.66;;;18.54;94.68
66627;BME280;53498;50.422;14.912;2022-08-21T08:17:03;98966.28;;;18.39;96.09
66627;BME280;53498;50.422;14.912;2022-08-21T08:19:29;98967.41;;;18.32;95.07
66627;BME280;53498;50.422;14.912;2022-08-21T08:21:54;98968.78;;;18.44;97.11
66627;BME280;53498;50.422;14.912;2022-08-21T08:24:20;98968.50;;;18.53;97.06
66627;BME280;53498;50.422;14.912;2022-08-21T08:26:46;98973.09;;;18.46;94.99
66627;BME280;53498;50.422;14.912;2022-08-21T08:29:12;98963.31;;;18.50;95.07
66627;BME280;53498;50.422;14.912;2022-08-21T08:31:37;98965.75;;;18.30;95.37
66627;BME280;53498;50.422;14.912;2022-08-21T08:34:03;98969.28;;;18.30;94.55
66627;BME280;53498;50.422;14.912;2022-08-21T08:36:34;98962.91;;;18.36;95.98
66627;BME280;53498;50.422;14.912;2022-08-21T08:39:01;98970.28;;;18.53;95.47
66627;BME280;53498;50.422;14.912;2022-08-21T08:41:27;98959.63;;;18.56;94.97
66627;BME280;53498;50.422;14.912;2022-08-21T08:44:00;98962.41;;;18.51;93.38
66627;BME280;53498;50.422;14.912;2022-08-21T08:46:38;98965.41;;;18.40;93.91
66627;BME280;53498;50.422;14.912;2022-08-21T08:49:30;98968.50;;;18.53;94.02
66627;BME280;53498;50.422;14.912;2022-08-21T08:52:00;98963.66;;;18.66;94.76
66627;BME280;53498;50.422;14.912;2022-08-21T08:54:33;98962.59;;;18.71;94.46
66627;BME280;53498;50.422;14.912;2022-08-21T08:57:02;98965.19;;;18.73;93.09
66627;BME280;53498;50.422;14.912;2022-08-21T08:59:55;98962.84;;;18.90;93.95
66627;BME280;53498;50.422;14.912;2022-08-21T09:02:22;98959.91;;;18.98;92.97
66627;BME280;53498;50.422;14.912;2022-08-21T09:04:53;98957.66;;;19.12;91.22
66627;BME280;53498;50.422;14.912;2022-08-21T09:10:03;98954.16;;;19.35;90.55
66627;BME280;53498;50.422;14.912;2022-08-21T09:12:50;98951.50;;;19.59;88.22
66627;BME280;53498;50.422;14.912;2022-08-21T09:26:24;98964.94;;;19.98;84.69
66627;BME280;53498;50.422;14.912;2022-08-21T09:28:54;98958.44;;;19.85;83.38
66627;BME280;53498;50.422;14.912;2022-08-21T09:31:29;98957.88;;;19.77;82.55
66627;BME280;53498;50.422;14.912;2022-08-21T09:34:10;98958.28;;;19.66;83.38
66627;BME280;53498;50.422;14.912;2022-08-21T09:36:45;98950.19;;;19.71;82.55
66627;BME280;53498;50.422;14.912;2022-08-21T09:39:22;98954.44;;;19.75;82.55
66627;BME280;53498;50.422;14.912;2022-08-21T09:41:59;98953.03;;;19.88;82.43
66627;BME280;53498;50.422;14.912;2022-08-21T09:44:31;98951.38;;;20.07;80.26
66627;BME280;53498;50.422;14.912;2022-08-21T09:46:57;98949.81;;;20.24;77.93
66627;BME280;53498;50.422;14.912;2022-08-21T09:49:31;98948.97;;;20.23;77.05
66627;BME280;53498;50.422;14.912;2022-08-21T09:51:58;98948.34;;;20.17;78.17
66627;BME280;53498;50.422;14.912;2022-08-21T09:54:29;98947.97;;;20.26;75.96
66627;BME280;53498;50.422;14.912;2022-08-21T09:56:58;98953.50;;;20.20;77.11
66627;BME280;53498;50.422;14.912;2022-08-21T09:59:44;98945.34;;;20.26;74.90
66627;BME280;53498;50.422;14.912;2022-08-21T10:02:30;98952.41;;;20.68;75.87
66627;BME280;53498;50.422;14.912;2022-08-21T10:05:02;98949.28;;;20.58;75.97
66627;BME280;53498;50.422;14.912;2022-08-21T10:07:31;98952.41;;;20.68;74.23
66627;BME280;53498;50.422;14.912;2022-08-21T10:10:14;98949.03;;;20.22;75.72
66627;BME280;53498;50.422;14.912;2022-08-21T10:13:01;98951.69;;;20.42;74.51
66627;BME280;53498;50.422;14.912;2022-08-21T10:15:51;98949.41;;;20.55;73.89
66627;BME280;53498;50.422;14.912;2022-08-21T10:18:30;98946.94;;;20.72;70.80
66627;BME280;53498;50.422;14.912;2022-08-21T10:29:08;98941.94;;;20.65;69.23
66627;BME280;53498;50.422;14.912;2022-08-21T10:32:15;98932.09;;;20.89;68.96
66627;BME280;53498;50.422;14.912;2022-08-21T10:40:52;98939.63;;;20.98;66.44
66627;BME280;53498;50.422;14.912;2022-08-21T10:45:55;98937.06;;;20.76;67.62
66627;BME280;53498;50.422;14.912;2022-08-21T10:48:42;98932.97;;;20.89;64.54
66627;BME280;53498;50.422;14.912;2022-08-21T10:51:30;98934.41;;;20.96;64.67
66627;BME280;53498;50.422;14.912;2022-08-21T10:54:05;98928.16;;;21.18;62.85
66627;BME280;53498;50.422;14.912;2022-08-21T10:56:38;98934.47;;;21.34;61.45
66627;BME280;53498;50.422;14.912;2022-08-21T11:02:27;98923.22;;;21.29;60.64
66627;BME280;53498;50.422;14.912;2022-08-21T11:05:15;98930.97;;;20.94;60.43
66627;BME280;53498;50.422;14.912;2022-08-21T11:07:55;98939.44;;;20.62;61.05
66627;BME280;53498;50.422;14.912;2022-08-21T11:10:46;98936.66;;;20.65;61.97
66627;BME280;53498;50.422;14.912;2022-08-21T11:13:19;98929.28;;;20.93;61.27
66627;BME280;53498;50.422;14.912;2022-08-21T11:18:45;98922.28;;;21.11;61.57
66627;BME280;53498;50.422;14.912;2022-08-21T11:22:24;98929.31;;;21.31;60.54
66627;BME280;53498;50.422;14.912;2022-08-21T11:24:32;98930.78;;;21.57;60.24
66627;BME280;53498;50.422;14.912;2022-08-21T11:29:39;98928.03;;;21.78;59.49
66627;BME280;53498;50.422;14.912;2022-08-21T11:40:34;98916.75;;;21.36;59.56
66627;BME280;53498;50.422;14.912;2022-08-21T11:45:53;98908.75;;;21.57;59.55
66627;BME280;53498;50.422;14.912;2022-08-21T11:48:48;98910.47;;;21.58;59.35
66627;BME280;53498;50.422;14.912;2022-08-21T11:51:24;98913.09;;;21.58;59.35
66627;BME280;53498;50.422;14.912;2022-08-21T11:56:25;98912.13;;;21.21;59.22
66627;BME280;53498;50.422;14.912;2022-08-21T11:58:57;98906.81;;;21.41;58.90
66627;BME280;53498;50.422;14.912;2022-08-21T12:01:43;98899.66;;;21.62;58.25
66627;BME280;53498;50.422;14.912;2022-08-21T12:04:28;98902.59;;;21.92;58.77
66627;BME280;53498;50.422;14.912;2022-08-21T12:06:55;98892.50;;;22.01;56.06
66627;BME280;53498;50.422;14.912;2022-08-21T12:12:28;98893.25;;;21.85;55.60
66627;BME280;53498;50.422;14.912;2022-08-21T12:17:39;98898.25;;;22.09;54.14
66627;BME280;53498;50.422;14.912;2022-08-21T12:23:14;98899.94;;;21.92;51.38
66627;BME280;53498;50.422;14.912;2022-08-21T12:25:46;98899.28;;;22.06;51.88
66627;BME280;53498;50.422;14.912;2022-08-21T12:28:16;98907.78;;;22.13;51.62
66627;BME280;53498;50.422;14.912;2022-08-21T12:30:46;98903.34;;;22.13;51.50
66627;BME280;53498;50.422;14.912;2022-08-21T12:35:51;98902.91;;;22.23;51.22
66627;BME280;53498;50.422;14.912;2022-08-21T12:38:28;98894.59;;;22.11;50.07
66627;BME280;53498;50.422;14.912;2022-08-21T12:41:20;98887.06;;;22.04;50.23
66627;BME280;53498;50.422;14.912;2022-08-21T12:46:36;98903.38;;;22.48;49.22
66627;BME280;53498;50.422;14.912;2022-08-21T12:49:14;98904.22;;;22.49;48.77
66627;BME280;53498;50.422;14.912;2022-08-21T12:51:54;98893.25;;;22.39;49.92
66627;BME280;53498;50.422;14.912;2022-08-21T12:54:27;98887.06;;;22.56;49.13
66627;BME280;53498;50.422;14.912;2022-08-21T12:57:01;98889.66;;;22.57;49.15
66627;BME280;53498;50.422;14.912;2022-08-21T12:59:28;98887.69;;;22.61;48.78
66627;BME280;53498;50.422;14.912;2022-08-21T13:01:55;98894.53;;;22.65;48.38
66627;BME280;53498;50.422;14.912;2022-08-21T13:04:34;98888.50;;;22.46;48.65
66627;BME280;53498;50.422;14.912;2022-08-21T13:07:06;98899.16;;;22.61;47.72
66627;BME280;53498;50.422;14.912;2022-08-21T13:09:32;98890.81;;;22.69;47.94
66627;BME280;53498;50.422;14.912;2022-08-21T13:11:59;98899.34;;;22.92;48.27
66627;BME280;53498;50.422;14.912;2022-08-21T13:14:36;98892.25;;;22.42;48.64
66627;BME280;53498;50.422;14.912;2022-08-21T13:17:04;98896.91;;;22.19;47.70
66627;BME280;53498;50.422;14.912;2022-08-21T13:19:31;98888.88;;;22.21;48.40
66627;BME280;53498;50.422;14.912;2022-08-21T13:21:58;98884.69;;;22.16;49.46
66627;BME280;53498;50.422;14.912;2022-08-21T13:24:30;98885.72;;;21.95;50.10
66627;BME280;53498;50.422;14.912;2022-08-21T13:26:57;98892.34;;;22.04;49.20
66627;BME280;53498;50.422;14.912;2022-08-21T13:29:27;98893.94;;;22.43;52.76
66627;BME280;53498;50.422;14.912;2022-08-21T13:31:57;98884.25;;;22.59;50.38
66627;BME280;53498;50.422;14.912;2022-08-21T13:34:26;98884.88;;;22.81;48.01
66627;BME280;53498;50.422;14.912;2022-08-21T13:36:57;98883.59;;;22.89;49.10
66627;BME280;53498;50.422;14.912;2022-08-21T13:39:24;98875.81;;;22.68;48.35
66627;BME280;53498;50.422;14.912;2022-08-21T13:41:53;98889.78;;;22.72;48.97
66627;BME280;53498;50.422;14.912;2022-08-21T13:44:34;98886.25;;;22.89;48.91
66627;BME280;53498;50.422;14.912;2022-08-21T13:47:02;98890.94;;;23.01;47.88
66627;BME280;53498;50.422;14.912;2022-08-21T13:49:32;98888.31;;;23.17;47.63
66627;BME280;53498;50.422;14.912;2022-08-21T13:51:58;98886.50;;;23.17;47.99
66627;BME280;53498;50.422;14.912;2022-08-21T13:54:41;98883.41;;;23.25;47.95
66627;BME280;53498;50.422;14.912;2022-08-21T13:57:31;98883.81;;;23.01;47.62
66627;BME280;53498;50.422;14.912;2022-08-21T14:00:20;98889.09;;;22.33;48.54
66627;BME280;53498;50.422;14.912;2022-08-21T14:02:51;98889.19;;;22.32;49.08
66627;BME280;53498;50.422;14.912;2022-08-21T14:05:26;98887.56;;;22.29;48.70
66627;BME280;53498;50.422;14.912;2022-08-21T14:08:01;98883.00;;;22.14;48.39